Time;durP1;ratioP1;P1;durP2;ratioP2;P2;SDS_P1;SDS_P2;PMS_P1;PMS_P2;Temp;Humidity;BMP_temperature;BMP_pressure;BME280_temperature;BME280_humidity;BME280_pressure;Samples;Min_cycle;Max_cycle;Signal;HPM_P1;HPM_P2
2022/07/26 00:02:22;;;;;;;0.43;0.43;;;;;;;18.30;74.53;99967.19;5072222;28;20182;-74
2022/07/26 00:04:48;;;;;;;0.00;0.00;;;;;;;18.31;74.76;99963.25;5072165;28;20185;-74
2022/07/26 00:07:13;;;;;;;0.03;0.03;;;;;;;18.32;75.09;99969.56;5070701;28;20221;-74
2022/07/26 00:09:39;;;;;;;1.20;1.20;;;;;;;18.32;75.14;99966.81;5070513;28;20639;-74
2022/07/26 00:12:04;;;;;;;3.47;2.77;;;;;;;18.32;74.85;99956.53;5072233;28;20220;-75
2022/07/26 00:14:29;;;;;;;0.00;0.00;;;;;;;18.37;74.50;99967.28;5072011;28;20537;-74
2022/07/26 00:16:55;;;;;;;0.00;0.00;;;;;;;18.43;74.68;99965.78;5071840;28;20224;-75
2022/07/26 00:19:20;;;;;;;0.00;0.00;;;;;;;18.49;74.27;99957.13;5070444;28;20200;-75
2022/07/26 00:21:46;;;;;;;0.00;0.00;;;;;;;18.53;73.92;99960.75;5071771;28;20182;-74
2022/07/26 00:24:11;;;;;;;0.00;0.00;;;;;;;18.58;73.40;99963.19;5071746;28;20778;-74
2022/07/26 00:26:37;;;;;;;0.00;0.00;;;;;;;18.58;73.61;99968.72;5071438;28;20225;-75
2022/07/26 00:29:04;;;;;;;0.00;0.00;;;;;;;18.60;73.88;99969.13;5071200;28;20174;-74
2022/07/26 00:31:31;;;;;;;0.00;0.00;;;;;;;18.61;72.78;99974.28;5071409;28;20673;-74
2022/07/26 00:33:56;;;;;;;0.00;0.00;;;;;;;18.66;72.39;99968.47;5070393;28;20202;-74
2022/07/26 00:36:21;;;;;;;0.00;0.00;;;;;;;18.72;72.52;99968.91;5071705;28;20612;-75
2022/07/26 00:38:47;;;;;;;0.00;0.00;;;;;;;18.77;71.74;99967.78;5071071;28;20174;-74
2022/07/26 00:41:12;;;;;;;0.00;0.00;;;;;;;18.88;70.59;99974.22;5069544;28;20175;-74
2022/07/26 00:43:55;;;;;;;0.30;0.30;;;;;;;18.93;70.47;99976.66;5071322;28;20579;-73
2022/07/26 00:46:20;;;;;;;0.93;0.47;;;;;;;19.00;69.51;99977.53;5071316;28;20174;-74
2022/07/26 00:48:45;;;;;;;2.67;0.40;;;;;;;19.06;68.98;99980.75;5069457;28;20568;-75
2022/07/26 00:51:11;;;;;;;0.20;0.20;;;;;;;19.09;68.85;99981.94;5070652;28;20689;-75
2022/07/26 00:53:37;;;;;;;0.20;0.20;;;;;;;19.08;69.03;99986.69;5071357;28;20170;-74
2022/07/26 00:56:02;;;;;;;5.93;0.47;;;;;;;19.11;69.20;99991.50;5071232;28;20249;-74
2022/07/26 00:58:27;;;;;;;0.40;0.40;;;;;;;19.11;68.99;99987.94;5071029;28;20783;-74
2022/07/26 01:00:53;;;;;;;0.30;0.30;;;;;;;19.08;69.44;99991.44;5071188;28;20177;-74
2022/07/26 01:03:18;;;;;;;0.13;0.13;;;;;;;19.09;69.16;99993.03;5069707;28;20209;-74
2022/07/26 01:05:44;;;;;;;0.00;0.00;;;;;;;19.10;69.17;100000.19;5070843;28;20166;-75
2022/07/26 01:08:10;;;;;;;0.00;0.00;;;;;;;19.10;69.30;99998.22;5069385;28;20181;-74
2022/07/26 01:10:35;;;;;;;0.00;0.00;;;;;;;19.09;69.28;99991.06;5069706;28;20194;-74
2022/07/26 01:13:01;;;;;;;0.00;0.00;;;;;;;19.09;69.44;99993.03;5070747;28;20240;-74
2022/07/26 01:15:26;;;;;;;0.93;0.30;;;;;;;19.08;69.56;99994.22;5070830;28;20193;-75
2022/07/26 01:17:51;;;;;;;0.10;0.10;;;;;;;19.07;69.57;99993.41;5070656;28;20173;-74
2022/07/26 01:20:17;;;;;;;0.30;0.30;;;;;;;19.04;69.45;99991.41;5071209;28;20618;-74
2022/07/26 01:22:42;;;;;;;0.00;0.00;;;;;;;19.03;69.53;99996.16;5071008;28;20687;-74
2022/07/26 01:25:08;;;;;;;0.10;0.10;;;;;;;19.02;69.59;99993.75;5069302;28;20655;-74
2022/07/26 01:27:37;;;;;;;0.00;0.00;;;;;;;19.04;69.44;99996.94;5070585;28;20249;-74
2022/07/26 01:30:04;;;;;;;0.00;0.00;;;;;;;19.01;69.57;99995.75;5070440;28;20166;-75
2022/07/26 01:32:30;;;;;;;0.10;0.10;;;;;;;19.02;69.76;99994.56;5070623;28;20171;-74
2022/07/26 01:34:55;;;;;;;0.10;0.10;;;;;;;19.05;69.36;100006.03;5071134;28;20285;-73
2022/07/26 01:37:20;;;;;;;0.00;0.00;;;;;;;19.06;69.30;100002.09;5070573;28;20179;-74
2022/07/26 01:39:46;;;;;;;0.00;0.00;;;;;;;19.06;69.60;100007.63;5069244;28;20170;-74
2022/07/26 01:42:11;;;;;;;0.67;0.40;;;;;;;19.07;69.41;100003.69;5070691;28;20175;-74
2022/07/26 01:44:36;;;;;;;0.00;0.00;;;;;;;19.05;69.45;100012.38;5070744;28;20174;-74
2022/07/26 01:47:02;;;;;;;0.20;0.10;;;;;;;19.01;69.80;100004.03;5070384;28;20633;-75
2022/07/26 01:49:27;;;;;;;0.00;0.00;;;;;;;18.96;69.93;100004.41;5069826;28;20170;-73
2022/07/26 01:51:53;;;;;;;0.27;0.27;;;;;;;18.93;70.10;100002.34;5070549;28;20259;-75
2022/07/26 01:54:18;;;;;;;0.30;0.30;;;;;;;18.91;70.22;100007.47;5070594;28;20171;-73
2022/07/26 01:56:43;;;;;;;0.30;0.30;;;;;;;18.93;70.34;100009.88;5070388;28;20176;-75
2022/07/26 01:59:09;;;;;;;0.00;0.00;;;;;;;18.95;70.27;100013.88;5070300;28;20646;-74
2022/07/26 02:01:34;;;;;;;0.40;0.20;;;;;;;18.98;70.01;100012.31;5070499;28;20580;-74
2022/07/26 02:03:59;;;;;;;1.90;1.17;;;;;;;19.01;70.15;100017.09;5070815;28;20649;-73
2022/07/26 02:06:25;;;;;;;0.93;0.30;;;;;;;19.03;70.15;100020.28;5070226;28;20605;-74
2022/07/26 02:08:51;;;;;;;0.33;0.33;;;;;;;19.04;69.99;100021.88;5070036;28;20483;-74
2022/07/26 02:11:16;;;;;;;0.97;0.37;;;;;;;19.06;69.93;100015.94;5070304;28;20210;-73
2022/07/26 02:13:41;;;;;;;1.23;0.83;;;;;;;19.06;70.01;100013.97;5070375;28;20546;-74
2022/07/26 02:16:10;;;;;;;0.20;0.13;;;;;;;19.08;70.26;100016.34;5070466;28;20646;-75
2022/07/26 02:18:36;;;;;;;0.20;0.20;;;;;;;19.06;70.27;100022.28;5068605;28;20174;-74
2022/07/26 02:21:03;;;;;;;0.10;0.10;;;;;;;19.06;70.41;100029.78;5070309;28;20178;-74
2022/07/26 02:23:29;;;;;;;0.00;0.00;;;;;;;19.05;70.47;100026.22;5068973;28;20190;-74
2022/07/26 02:25:55;;;;;;;0.40;0.30;;;;;;;19.04;70.37;100030.16;5072186;28;20381;-74
2022/07/26 02:28:21;;;;;;;0.00;0.00;;;;;;;19.04;70.55;100038.47;5072432;28;20209;-74
2022/07/26 02:30:47;;;;;;;0.27;0.27;;;;;;;19.02;70.56;100035.28;5072651;28;20580;-74
2022/07/26 02:33:13;;;;;;;0.00;0.00;;;;;;;18.99;70.71;100033.28;5073969;28;20174;-74
2022/07/26 02:35:38;;;;;;;0.10;0.10;;;;;;;18.95;70.81;100036.03;5072731;28;20190;-74
2022/07/26 02:38:06;;;;;;;0.20;0.20;;;;;;;18.92;70.98;100036.75;5073265;28;20245;-74
2022/07/26 02:40:33;;;;;;;12.77;2.60;;;;;;;18.92;71.16;100035.97;5073934;28;20167;-73
2022/07/26 02:42:59;;;;;;;1.20;0.63;;;;;;;18.87;71.07;100044.63;5073557;28;20708;-73
2022/07/26 02:45:24;;;;;;;11.60;0.73;;;;;;;18.86;71.56;100043.81;5073583;28;20265;-74
2022/07/26 02:47:52;;;;;;;0.10;0.10;;;;;;;18.85;71.84;100036.69;5073407;28;20185;-74
2022/07/26 02:50:19;;;;;;;0.00;0.00;;;;;;;18.86;72.15;100043.81;5072335;28;20213;-73
2022/07/26 02:52:47;;;;;;;0.30;0.30;;;;;;;18.88;72.07;100037.91;5073540;28;20191;-74
2022/07/26 02:55:15;;;;;;;0.57;0.43;;;;;;;18.86;72.40;100043.81;5073372;28;20170;-74
2022/07/26 02:57:40;;;;;;;0.00;0.00;;;;;;;18.86;72.33;100043.81;5073220;28;20189;-74
2022/07/26 03:00:08;;;;;;;0.20;0.20;;;;;;;18.85;72.34;100041.44;5073129;28;20179;-74
2022/07/26 03:02:34;;;;;;;5.10;0.43;;;;;;;18.81;72.41;100040.59;5072106;28;20175;-74
2022/07/26 03:05:01;;;;;;;0.00;0.00;;;;;;;18.80;72.51;100050.03;5073001;28;20185;-75
2022/07/26 03:07:27;;;;;;;1.30;1.27;;;;;;;18.77;72.66;100048.84;5072268;28;20626;-75
2022/07/26 03:09:52;;;;;;;1.13;0.30;;;;;;;18.74;72.83;100052.34;5072897;28;20186;-74
2022/07/26 03:12:17;;;;;;;8.57;1.37;;;;;;;18.69;73.38;100053.50;5072143;28;20178;-72
2022/07/26 03:14:43;;;;;;;0.00;0.00;;;;;;;18.67;73.62;100050.31;5073211;28;20254;-74
2022/07/26 03:17:08;;;;;;;0.07;0.07;;;;;;;18.67;73.72;100044.78;5072894;28;20202;-74
2022/07/26 03:19:33;;;;;;;0.47;0.33;;;;;;;18.65;73.95;100049.06;5072793;28;20182;-73
2022/07/26 03:21:59;;;;;;;12.23;0.63;;;;;;;18.64;74.29;100051.03;5073042;28;20731;-75
2022/07/26 03:24:24;;;;;;;1.53;0.80;;;;;;;18.64;74.52;100051.03;5073014;28;20630;-74
2022/07/26 03:26:49;;;;;;;1.57;1.47;;;;;;;18.66;74.92;100051.47;5072827;28;20649;-74
2022/07/26 03:29:15;;;;;;;0.30;0.30;;;;;;;18.64;74.81;100050.25;5071458;28;20178;-74
2022/07/26 03:31:40;;;;;;;0.80;0.17;;;;;;;18.61;75.24;100053.72;5073151;28;20301;-74
2022/07/26 03:34:05;;;;;;;0.13;0.13;;;;;;;18.60;75.25;100054.91;5071417;28;20179;-75
2022/07/26 03:36:31;;;;;;;0.07;0.07;;;;;;;18.59;75.46;100050.53;5071318;28;20171;-75
2022/07/26 03:38:56;;;;;;;0.50;0.30;;;;;;;18.58;75.36;100065.56;5070879;28;20692;-74
2022/07/26 03:41:22;;;;;;;0.30;0.20;;;;;;;18.57;75.48;100050.94;5072656;28;20630;-74
2022/07/26 03:43:47;;;;;;;1.33;0.80;;;;;;;18.54;75.89;100042.59;5071448;28;20179;-73
2022/07/26 03:46:12;;;;;;;9.30;0.80;;;;;;;18.50;76.10;100044.47;5072541;28;20186;-74
2022/07/26 03:48:38;;;;;;;0.00;0.00;;;;;;;18.44;76.37;100044.03;5070727;28;20181;-73
2022/07/26 03:51:03;;;;;;;0.27;0.27;;;;;;;18.40;76.76;100051.47;5071366;28;20206;-74
2022/07/26 03:53:28;;;;;;;0.30;0.30;;;;;;;18.35;76.96;100049.03;5071092;28;20175;-74
2022/07/26 03:58:38;;;;;;;0.00;0.00;;;;;;;18.24;77.60;100046.13;5072247;28;20232;-73
2022/07/26 04:01:04;;;;;;;8.33;1.13;;;;;;;18.24;78.03;100043.34;5072311;28;20174;-74
2022/07/26 04:03:29;;;;;;;0.40;0.40;;;;;;;18.23;78.11;100052.81;5072043;28;20197;-73
2022/07/26 04:05:54;;;;;;;0.30;0.30;;;;;;;18.21;78.50;100048.81;5070741;28;20720;-74
2022/07/26 04:08:20;;;;;;;0.50;0.47;;;;;;;18.21;78.82;100048.81;5071773;28;20213;-74
2022/07/26 04:10:52;;;;;;;0.10;0.10;;;;;;;18.18;79.16;100044.84;5070805;28;20692;-74
2022/07/26 04:13:22;;;;;;;0.00;0.00;;;;;;;18.18;79.34;100044.03;5070795;28;20194;-74
2022/07/26 04:15:48;;;;;;;0.00;0.00;;;;;;;18.19;79.44;100060.25;5070414;28;20181;-73
2022/07/26 04:18:14;;;;;;;1.03;0.80;;;;;;;18.21;79.77;100049.59;5071536;28;20261;-74
2022/07/26 04:20:40;;;;;;;1.00;0.57;;;;;;;18.26;79.82;100056.81;5070514;28;20277;-73
2022/07/26 04:23:05;;;;;;;0.07;0.07;;;;;;;18.28;79.61;100048.94;5070310;28;20177;-74
2022/07/26 04:25:33;;;;;;;1.70;0.77;;;;;;;18.30;79.84;100060.41;5070343;28;20193;-75
2022/07/26 04:27:58;;;;;;;0.97;0.70;;;;;;;18.31;80.09;100062.00;5071510;28;20178;-74
2022/07/26 04:30:24;;;;;;;0.70;0.70;;;;;;;18.33;80.48;100070.72;5071145;28;20557;-74
2022/07/26 04:32:49;;;;;;;3.40;0.40;;;;;;;18.37;80.22;100069.63;5071635;28;20190;-74
2022/07/26 04:35:15;;;;;;;0.10;0.10;;;;;;;18.38;80.10;100071.22;5071501;28;20186;-74
2022/07/26 04:37:42;;;;;;;0.30;0.30;;;;;;;18.41;80.13;100070.47;5070005;28;20181;-74
2022/07/26 04:40:09;;;;;;;0.40;0.40;;;;;;;18.45;80.15;100067.75;5069886;28;20185;-74
2022/07/26 04:42:35;;;;;;;0.60;0.60;;;;;;;18.47;80.19;100062.63;5069908;28;20265;-75
2022/07/26 04:45:02;;;;;;;2.10;0.80;;;;;;;18.48;80.29;100069.75;5071369;28;20170;-74
2022/07/26 04:47:27;;;;;;;0.40;0.40;;;;;;;18.49;80.60;100070.56;5070823;28;20170;-75
2022/07/26 04:49:53;;;;;;;0.20;0.20;;;;;;;18.49;80.85;100073.31;5068838;28;20689;-72
2022/07/26 04:52:18;;;;;;;5.40;1.17;;;;;;;18.50;80.50;100075.72;5069789;28;20250;-74
2022/07/26 04:54:43;;;;;;;0.30;0.30;;;;;;;18.51;80.77;100070.97;5071135;28;20223;-74
2022/07/26 04:57:09;;;;;;;0.60;0.60;;;;;;;18.54;80.73;100064.72;5070736;28;20602;-74
2022/07/26 04:59:34;;;;;;;0.10;0.07;;;;;;;18.54;80.51;100059.97;5071008;28;20236;-74
2022/07/26 05:01:59;;;;;;;0.10;0.10;;;;;;;18.54;80.30;100051.69;5069765;28;20190;-75
2022/07/26 05:04:25;;;;;;;0.73;0.57;;;;;;;18.57;80.41;100058.44;5070946;28;20179;-74
2022/07/26 05:06:50;;;;;;;0.30;0.30;;;;;;;18.58;80.27;100063.59;5070741;28;20537;-75
2022/07/26 05:09:18;;;;;;;0.20;0.20;;;;;;;18.62;80.07;100060.84;5069348;28;20601;-74
2022/07/26 05:11:43;;;;;;;0.83;0.57;;;;;;;18.63;79.66;100068.00;5069280;28;20198;-75
2022/07/26 05:14:09;;;;;;;0.40;0.40;;;;;;;18.65;79.47;100071.19;5071092;28;20220;-74
2022/07/26 05:16:34;;;;;;;1.90;1.67;;;;;;;18.65;79.04;100071.19;5070822;28;20181;-74
2022/07/26 05:18:59;;;;;;;0.40;0.30;;;;;;;18.66;78.97;100070.03;5070726;28;20646;-74
2022/07/26 05:21:26;;;;;;;0.30;0.30;;;;;;;18.67;79.14;100066.13;5070952;28;20571;-73
2022/07/26 05:23:51;;;;;;;1.90;0.47;;;;;;;18.72;78.55;100076.84;5070911;28;20293;-75
2022/07/26 05:26:17;;;;;;;1.17;1.10;;;;;;;18.73;78.59;100067.38;5070620;28;20266;-74
2022/07/26 05:28:42;;;;;;;0.77;0.23;;;;;;;18.77;78.61;100075.72;5070492;28;20263;-75
2022/07/26 05:31:07;;;;;;;0.80;0.80;;;;;;;18.77;78.52;100073.75;5070687;28;20238;-74
2022/07/26 05:33:33;;;;;;;1.50;1.20;;;;;;;18.81;78.47;100082.91;5070771;28;20177;-75
2022/07/26 05:35:58;;;;;;;1.27;1.17;;;;;;;18.77;78.45;100078.47;5070722;28;20269;-75
2022/07/26 05:38:24;;;;;;;1.20;1.10;;;;;;;18.72;78.66;100082.38;5070356;28;20178;-74
2022/07/26 05:40:50;;;;;;;3.77;1.00;;;;;;;18.70;78.95;100073.66;5070623;28;20220;-75
2022/07/26 05:43:15;;;;;;;6.37;1.23;;;;;;;18.69;79.10;100070.09;5069312;28;20546;-75
2022/07/26 05:45:40;;;;;;;1.97;1.10;;;;;;;18.67;79.11;100074.41;5070551;28;20174;-77
2022/07/26 05:48:06;;;;;;;14.80;0.33;;;;;;;18.62;79.94;100078.25;5070298;28;20171;-74
2022/07/26 05:50:31;;;;;;;3.03;0.80;;;;;;;18.60;79.87;100074.28;5069697;28;20206;-75
2022/07/26 05:52:57;;;;;;;1.37;1.27;;;;;;;18.59;80.54;100079.00;5070586;28;20189;-74
2022/07/26 05:55:22;;;;;;;1.00;0.87;;;;;;;18.59;81.40;100080.97;5070466;28;20199;-73
2022/07/26 05:57:48;;;;;;;1.43;1.10;;;;;;;18.57;81.35;100086.91;5070278;28;20691;-74
2022/07/26 06:00:14;;;;;;;1.67;1.53;;;;;;;18.49;81.63;100087.94;5071209;28;20175;-74
2022/07/26 06:02:40;;;;;;;0.67;0.67;;;;;;;18.45;81.85;100087.13;5073209;28;20182;-75
2022/07/26 06:05:06;;;;;;;4.07;0.63;;;;;;;18.46;82.25;100080.41;5074543;28;20174;-74
2022/07/26 06:07:32;;;;;;;2.83;1.83;;;;;;;18.44;82.50;100089.09;5074096;28;20567;-74
2022/07/26 06:09:57;;;;;;;0.50;0.47;;;;;;;18.43;82.76;100086.69;5074119;28;20649;-75
2022/07/26 06:12:23;;;;;;;1.67;0.90;;;;;;;18.38;82.88;100085.06;5074273;28;20247;-74
2022/07/26 06:14:48;;;;;;;0.47;0.47;;;;;;;18.37;83.17;100083.47;5074544;28;20190;-74
2022/07/26 06:17:13;;;;;;;0.07;0.07;;;;;;;18.38;83.13;100087.03;5074227;28;20630;-75
2022/07/26 06:19:39;;;;;;;4.47;0.97;;;;;;;18.38;83.05;100098.09;5072785;28;20548;-74
2022/07/26 06:22:04;;;;;;;5.40;1.30;;;;;;;18.38;83.00;100098.09;5074058;28;20174;-75
2022/07/26 06:24:29;;;;;;;12.90;2.77;;;;;;;18.42;82.90;100098.94;5072809;28;20630;-76
2022/07/26 06:26:56;;;;;;;0.30;0.30;;;;;;;18.45;82.92;100106.47;5072273;28;20186;-74
2022/07/26 06:29:22;;;;;;;0.53;0.53;;;;;;;18.54;83.14;100104.25;5072385;28;20283;-75
2022/07/26 06:31:47;;;;;;;1.83;1.30;;;;;;;18.59;82.13;100111.41;5073980;28;20201;-74
2022/07/26 06:34:13;;;;;;;1.50;1.40;;;;;;;18.58;81.94;100109.84;5073996;28;20167;-75
2022/07/26 06:36:38;;;;;;;4.90;1.60;;;;;;;18.55;82.05;100111.38;5073035;28;20197;-73
2022/07/26 06:39:04;;;;;;;0.53;0.53;;;;;;;18.59;82.21;100108.66;5076348;28;20300;-75
2022/07/26 06:41:29;;;;;;;0.80;0.80;;;;;;;18.61;82.09;100126.47;5073600;28;20272;-74
2022/07/26 06:43:54;;;;;;;9.37;1.87;;;;;;;18.60;82.03;100126.84;5074095;28;20622;-75
2022/07/26 06:46:20;;;;;;;8.33;1.80;;;;;;;18.72;81.88;100123.91;5073738;28;20177;-75
2022/07/26 06:48:46;;;;;;;0.50;0.50;;;;;;;18.94;81.35;100134.06;5072061;28;20182;-77
2022/07/26 06:51:12;;;;;;;0.60;0.60;;;;;;;19.09;80.02;100134.25;5073512;28;20206;-76
2022/07/26 06:53:37;;;;;;;4.00;0.97;;;;;;;19.09;79.42;100128.72;5073595;28;20193;-76
2022/07/26 06:56:03;;;;;;;2.77;1.10;;;;;;;19.05;79.56;100128.69;5073642;28;20162;-78
2022/07/26 06:58:28;;;;;;;1.43;1.37;;;;;;;18.98;80.05;100123.06;5072907;28;20658;-76
2022/07/26 07:00:54;;;;;;;0.23;0.23;;;;;;;19.02;80.31;100134.97;5073447;28;20698;-77
2022/07/26 07:03:19;;;;;;;1.83;1.73;;;;;;;19.08;80.65;100129.91;5073251;28;20174;-77
2022/07/26 07:05:45;;;;;;;5.10;2.40;;;;;;;18.97;80.09;100127.81;5073212;28;20174;-77
2022/07/26 07:08:11;;;;;;;1.87;1.77;;;;;;;19.03;80.14;100128.25;5070959;28;20175;-77
2022/07/26 07:10:36;;;;;;;1.70;1.60;;;;;;;19.09;80.07;100123.97;5071482;28;20206;-77
2022/07/26 07:13:01;;;;;;;0.80;0.80;;;;;;;19.31;79.02;100119.50;5072631;28;20179;-75
2022/07/26 07:15:27;;;;;;;3.67;1.20;;;;;;;19.64;78.56;100129.00;5072816;28;20174;-78
2022/07/26 07:17:52;;;;;;;3.43;1.43;;;;;;;19.72;76.20;100119.59;5070955;28;20194;-78
2022/07/26 07:20:18;;;;;;;2.20;1.87;;;;;;;19.72;76.51;100134.25;5072719;28;20296;-77
2022/07/26 07:22:43;;;;;;;1.13;0.93;;;;;;;19.68;76.58;100143.72;5071436;28;20175;-76
2022/07/26 07:25:08;;;;;;;20.93;2.23;;;;;;;19.61;77.01;100142.44;5072458;28;20530;-77
2022/07/26 07:27:34;;;;;;;1.30;1.13;;;;;;;19.58;77.61;100142.41;5072250;28;20627;-78
2022/07/26 07:29:59;;;;;;;0.60;0.60;;;;;;;19.58;77.64;100148.75;5071867;28;20183;-77
2022/07/26 07:32:25;;;;;;;7.30;1.87;;;;;;;19.70;77.01;100138.56;5072833;28;20198;-77
2022/07/26 07:34:50;;;;;;;7.00;1.63;;;;;;;19.78;76.33;100141.03;5071007;28;20175;-77
2022/07/26 07:37:16;;;;;;;7.57;3.33;;;;;;;19.82;76.90;100133.56;5068885;28;20675;-76
2022/07/26 07:39:42;;;;;;;1.73;1.57;;;;;;;19.94;76.47;100135.22;5066314;28;20174;-77
2022/07/26 07:42:07;;;;;;;1.90;1.80;;;;;;;20.09;75.53;100138.91;5071833;28;20524;-77
2022/07/26 07:44:32;;;;;;;1.07;0.97;;;;;;;20.07;74.77;100130.19;5071292;28;20178;-78
2022/07/26 07:46:58;;;;;;;4.53;2.07;;;;;;;20.10;75.10;100133.00;5072473;28;20184;-74
2022/07/26 07:49:23;;;;;;;1.03;0.83;;;;;;;20.09;74.49;100133.38;5071221;28;20183;-75
2022/07/26 07:51:48;;;;;;;1.07;1.07;;;;;;;19.94;74.23;100126.91;5072254;28;20217;-75
2022/07/26 07:54:14;;;;;;;0.70;0.70;;;;;;;20.02;74.62;100136.91;5072361;28;20502;-75
2022/07/26 07:56:43;;;;;;;1.93;1.83;;;;;;;20.23;74.74;100127.94;5072095;28;20658;-75
2022/07/26 07:59:09;;;;;;;2.37;1.60;;;;;;;20.45;72.80;100142.81;5072168;28;20450;-74
2022/07/26 08:01:34;;;;;;;8.47;2.03;;;;;;;20.53;72.23;100129.78;5070899;28;20210;-74
2022/07/26 08:03:59;;;;;;;2.20;2.00;;;;;;;20.48;71.94;100136.50;5072183;28;20543;-74
2022/07/26 08:06:25;;;;;;;2.10;1.00;;;;;;;20.67;71.79;100139.00;5070787;28;20175;-74
2022/07/26 08:08:50;;;;;;;1.70;1.60;;;;;;;20.60;71.01;100138.97;5070431;28;20182;-75
2022/07/26 08:11:15;;;;;;;1.80;1.70;;;;;;;20.54;72.07;100139.69;5072367;28;20666;-74
2022/07/26 08:13:41;;;;;;;1.00;1.00;;;;;;;20.61;71.51;100135.00;5072169;28;20175;-74
2022/07/26 08:16:06;;;;;;;1.10;0.60;;;;;;;20.67;71.43;100133.44;5070722;28;20176;-74
2022/07/26 08:18:32;;;;;;;1.27;1.20;;;;;;;21.04;71.28;100143.56;5071826;28;20644;-74
2022/07/26 08:20:58;;;;;;;4.47;1.43;;;;;;;21.12;68.99;100128.53;5071972;28;20632;-73
2022/07/26 08:23:23;;;;;;;1.50;1.00;;;;;;;21.02;68.43;100138.41;5071021;28;20184;-74
2022/07/26 08:25:49;;;;;;;1.07;1.03;;;;;;;21.04;66.98;100135.25;5071852;28;20782;-74
2022/07/26 08:28:15;;;;;;;1.40;1.30;;;;;;;21.05;66.73;100136.84;5071578;28;20263;-74
2022/07/26 08:30:41;;;;;;;1.17;1.07;;;;;;;21.26;66.81;100136.94;5070360;28;20303;-74
2022/07/26 08:33:06;;;;;;;1.57;1.47;;;;;;;21.26;66.16;100131.38;5071625;28;20265;-77
2022/07/26 08:35:31;;;;;;;0.47;0.47;;;;;;;21.49;64.50;100144.97;5071634;28;20676;-75
2022/07/26 08:37:57;;;;;;;0.70;0.70;;;;;;;21.48;63.98;100143.38;5070060;28;20183;-76
2022/07/26 08:40:22;;;;;;;1.90;1.40;;;;;;;21.53;64.53;100144.97;5071158;28;20173;-74
2022/07/26 08:42:53;;;;;;;1.60;1.50;;;;;;;21.70;64.14;100155.38;5070326;28;20214;-74
2022/07/26 08:45:23;;;;;;;0.80;0.80;;;;;;;21.65;63.54;100159.31;5069948;28;20177;-75
2022/07/26 08:47:49;;;;;;;0.70;0.70;;;;;;;21.82;63.75;100157.75;5071082;28;20220;-76
2022/07/26 08:50:14;;;;;;;1.63;1.53;;;;;;;21.93;61.98;100161.34;5069955;28;20216;-73
2022/07/26 08:52:40;;;;;;;0.67;0.67;;;;;;;21.86;61.13;100155.78;5069902;28;20752;-75
2022/07/26 08:55:05;;;;;;;1.83;1.17;;;;;;;21.78;61.15;100156.16;5071015;28;20175;-74
2022/07/26 08:57:31;;;;;;;0.50;0.43;;;;;;;21.95;61.40;100175.66;5070984;28;20177;-73
2022/07/26 09:00:25;;;;;;;2.57;1.47;;;;;;;22.07;58.79;100166.16;5070854;28;20472;-74
2022/07/26 09:02:52;;;;;;;1.83;1.73;;;;;;;22.23;58.83;100165.78;5069666;28;20186;-79
2022/07/26 09:05:31;;;;;;;4.87;1.27;;;;;;;22.03;60.41;100182.03;5069742;28;20234;-76
2022/07/26 09:07:58;;;;;;;1.20;1.10;;;;;;;21.94;61.57;100181.63;5069661;28;20267;-82
2022/07/26 09:10:24;;;;;;;4.70;1.33;;;;;;;21.98;61.27;100177.66;5069278;28;20172;-78
2022/07/26 09:12:56;;;;;;;1.30;1.23;;;;;;;21.86;61.50;100174.47;5070912;28;20187;-78
2022/07/26 09:15:25;;;;;;;0.40;0.40;;;;;;;21.90;60.67;100191.94;5070817;28;20170;-80
2022/07/26 09:17:53;;;;;;;0.10;0.00;;;;;;;21.82;60.52;100207.81;5069220;28;20169;-83
2022/07/26 09:20:27;;;;;;;0.10;0.10;;;;;;;21.53;65.50;100222.81;5069449;28;20186;-78
2022/07/26 09:23:02;;;;;;;0.93;0.57;;;;;;;20.93;68.89;100217.72;5070766;28;20656;-78
2022/07/26 09:25:30;;;;;;;0.10;0.10;;;;;;;20.52;71.59;100226.13;5069331;28;20339;-80
2022/07/26 09:27:58;;;;;;;0.57;0.30;;;;;;;20.03;73.19;100232.78;5070506;28;20194;-80
2022/07/26 09:30:24;;;;;;;0.00;0.00;;;;;;;19.78;75.42;100240.03;5069150;28;20168;-80
2022/07/26 09:33:04;;;;;;;0.63;0.10;;;;;;;19.59;76.06;100252.09;5070635;28;20369;-75
2022/07/26 09:35:32;;;;;;;0.00;0.00;;;;;;;19.35;76.46;100250.53;5069129;28;20279;-75
2022/07/26 09:37:58;;;;;;;0.00;0.00;;;;;;;19.27;76.12;100262.72;5070663;28;20555;-77
2022/07/26 09:40:31;;;;;;;0.00;0.00;;;;;;;19.34;76.57;100268.34;5070346;28;20171;-78
2022/07/26 09:43:00;;;;;;;0.10;0.10;;;;;;;19.38;75.66;100269.19;5070650;28;20198;-73
2022/07/26 09:45:27;;;;;;;0.23;0.20;;;;;;;19.12;75.83;100270.03;5070547;28;20492;-74
2022/07/26 09:47:53;;;;;;;3.10;0.20;;;;;;;19.03;76.46;100281.34;5070294;28;20178;-73
2022/07/26 09:50:20;;;;;;;0.00;0.00;;;;;;;18.88;76.15;100281.50;5069221;28;20652;-77
2022/07/26 09:53:15;;;;;;;0.43;0.43;;;;;;;18.64;76.90;100279.94;5069244;28;20170;-76
2022/07/26 09:55:44;;;;;;;1.70;0.50;;;;;;;18.42;77.34;100285.06;5047595;28;20719;-74
2022/07/26 09:58:12;;;;;;;0.40;0.40;;;;;;;18.29;78.43;100288.38;5070061;28;20216;-75
2022/07/26 10:00:38;;;;;;;0.00;0.00;;;;;;;18.20;79.59;100280.31;5070301;28;20433;-74
2022/07/26 10:03:03;;;;;;;0.20;0.20;;;;;;;18.29;79.28;100285.63;5070411;28;20239;-75
2022/07/26 10:05:31;;;;;;;0.20;0.20;;;;;;;18.33;78.45;100292.00;5070372;28;20174;-75
2022/07/26 10:07:58;;;;;;;0.00;0.00;;;;;;;18.48;78.74;100293.84;5070195;28;20182;-73
2022/07/26 10:10:46;;;;;;;0.00;0.00;;;;;;;18.56;78.61;100292.03;5070001;28;20167;-75
2022/07/26 10:13:13;;;;;;;0.47;0.47;;;;;;;18.44;79.10;100299.34;5068947;28;20175;-75
2022/07/26 10:15:40;;;;;;;0.10;0.10;;;;;;;18.39;80.15;100307.16;5069160;28;20232;-75
2022/07/26 10:18:08;;;;;;;0.10;0.10;;;;;;;18.42;80.85;100312.75;5069769;28;20185;-75
2022/07/26 10:20:47;;;;;;;0.00;0.00;;;;;;;18.47;81.32;100308.06;5070303;28;20475;-75
2022/07/26 10:23:36;;;;;;;0.30;0.30;;;;;;;18.60;81.06;100315.81;5070253;28;20162;-75
2022/07/26 10:26:04;;;;;;;0.10;0.10;;;;;;;18.70;81.27;100303.38;5070147;28;20178;-75
2022/07/26 10:28:31;;;;;;;0.40;0.40;;;;;;;18.83;80.92;100310.31;5069733;28;20179;-75
2022/07/26 10:31:19;;;;;;;0.00;0.00;;;;;;;18.88;79.99;100318.31;5068767;28;20702;-74
2022/07/26 10:33:47;;;;;;;0.00;0.00;;;;;;;19.01;79.77;100324.44;5070088;28;20700;-74
2022/07/26 10:36:32;;;;;;;0.00;0.00;;;;;;;19.23;79.54;100328.34;5068507;28;20179;-75
2022/07/26 10:39:05;;;;;;;0.00;0.00;;;;;;;19.30;78.66;100331.22;5069562;28;20175;-75
2022/07/26 10:41:47;;;;;;;0.00;0.00;;;;;;;19.32;77.93;100328.88;5069905;28;20182;-75
2022/07/26 10:44:33;;;;;;;0.00;0.00;;;;;;;19.40;79.20;100327.03;5070102;28;20630;-75
2022/07/26 10:47:05;;;;;;;0.00;0.00;;;;;;;19.38;79.37;100332.91;5071804;28;20424;-75
2022/07/26 10:49:55;;;;;;;0.10;0.10;;;;;;;19.31;79.45;100335.59;5071407;28;20652;-75
2022/07/26 10:52:24;;;;;;;0.10;0.10;;;;;;;19.16;79.68;100334.56;5065964;28;20195;-76
2022/07/26 10:54:58;;;;;;;0.00;0.00;;;;;;;19.17;80.09;100338.94;5072854;28;20178;-75
2022/07/26 10:57:27;;;;;;;0.00;0.00;;;;;;;19.23;80.68;100342.19;5073212;28;20167;-75
2022/07/26 10:59:57;;;;;;;0.00;0.00;;;;;;;19.27;80.72;100341.09;5070833;28;20340;-75
2022/07/26 11:02:31;;;;;;;0.47;0.30;;;;;;;19.14;81.09;100339.69;5071163;28;20221;-74
2022/07/26 11:05:11;;;;;;;0.00;0.00;;;;;;;19.14;81.49;100336.94;5073218;28;20250;-74
2022/07/26 11:07:46;;;;;;;0.20;0.20;;;;;;;19.28;81.52;100344.66;5073150;28;20174;-75
2022/07/26 11:10:11;;;;;;;0.10;0.10;;;;;;;19.31;80.80;100344.69;5070308;28;20267;-75
2022/07/26 11:12:37;;;;;;;0.60;0.60;;;;;;;19.31;81.36;100358.56;5071537;28;20240;-75
2022/07/26 11:15:16;;;;;;;0.40;0.40;;;;;;;19.25;80.46;100351.75;5071650;28;20186;-75
2022/07/26 11:17:41;;;;;;;0.10;0.10;;;;;;;19.22;80.01;100354.44;5073043;28;20182;-75
2022/07/26 11:20:07;;;;;;;0.07;0.07;;;;;;;19.36;79.33;100357.44;5070108;28;20182;-75
2022/07/26 11:22:34;;;;;;;0.00;0.00;;;;;;;19.38;78.10;100357.06;5072721;28;20257;-76
2022/07/26 11:25:00;;;;;;;0.00;0.00;;;;;;;19.42;77.49;100352.38;5070549;28;20190;-75
2022/07/26 11:27:26;;;;;;;0.20;0.20;;;;;;;19.29;77.07;100366.44;5068944;28;20343;-75
2022/07/26 11:29:51;;;;;;;0.13;0.13;;;;;;;19.22;78.01;100359.97;5068538;28;20182;-73